Terminal Aerodrome Forecast
Issued by NWS

Home | Current Version | Previous Version | Graphics & Text | Print | Product List | Glossary On
Versions: 1 2 3 4 5 6 7 8 9 10 11 12 13 14 15 16 17 18 19 20 21 22 23 24 25 26 27 28
000
FTUS43 KLOT 180256 AAA
TAFORD
TAF AMD
KORD 180256Z 1803/1906 34009KT P6SM FEW150 BKN250
     FM180700 01006KT P6SM SCT250
     FM181500 05007KT P6SM FEW150 BKN250
     FM181800 08008KT P6SM SCT120 BKN250
     FM190200 12007KT P6SM BKN040 OVC100 PROB30 1902/1906 -SHRA=

USA.gov is the U.S. government's official web portal to all federal, state and local government web resources and services.